East Ayton, United Kingdom
Current Conditions -  °F | °C
As of 8:50 PM on Thursday 23 Oct 2014 (Local Time) from EGXV Reporting Station
Broken Clouds Broken Clouds  
Wind Chill: 59°   Ceiling: 4500
Heat Index: 59°   Visibility: 6mi
Dew Point: 55°   Wind: 13mph
Humidity: 88%   Direction: 210°SSW
Pressure: 29.85"   Gusts: NA
Location:  54.25°N, 0.47°W
Report Text: EGXV 231950Z AUTO 21011KT 9999 FEW029/// BKN045/// 15/13 Q1011
Loading
Personal Weather Stations






























Interactive Weather Map
Tropical Storm Tracking
New forecast layout! Learn more

10-Day Weather Forecast

Advertisements
Track Severe Weather on mobile